createdAt,value
2017-05-16T00:00:07.739Z,967.98
2017-05-16T00:01:08.270Z,968.02
2017-05-16T00:02:07.803Z,968.04
2017-05-16T00:03:07.336Z,968.01
2017-05-16T00:04:07.910Z,968.05
2017-05-16T00:05:07.420Z,968.02
2017-05-16T00:06:08.295Z,968.00
2017-05-16T00:07:07.786Z,967.98
2017-05-16T00:08:07.470Z,967.95
2017-05-16T00:09:08.093Z,967.92
2017-05-16T00:10:07.883Z,967.91
2017-05-16T00:11:07.466Z,967.93
2017-05-16T00:12:08.099Z,967.89
2017-05-16T00:13:07.751Z,967.88
2017-05-16T00:14:08.235Z,967.82
2017-05-16T00:15:07.765Z,967.82
2017-05-16T00:16:07.417Z,967.85
2017-05-16T00:17:08.113Z,967.86
2017-05-16T00:18:07.812Z,967.87
2017-05-16T00:19:07.348Z,967.88
2017-05-16T00:20:07.954Z,967.84
2017-05-16T00:21:07.563Z,967.83
2017-05-16T00:22:08.123Z,967.83
2017-05-16T00:23:07.818Z,967.81
2017-05-16T00:24:07.423Z,967.80
2017-05-16T00:25:07.844Z,967.80
2017-05-16T00:26:07.774Z,967.81
2017-05-16T00:27:07.370Z,967.80
2017-05-16T00:28:08.015Z,967.81
2017-05-16T00:29:07.489Z,967.76
2017-05-16T00:30:08.188Z,967.78
2017-05-16T00:31:07.839Z,967.80
2017-05-16T00:32:07.405Z,967.80
2017-05-16T00:33:08.131Z,967.83
2017-05-16T00:34:07.696Z,967.79
2017-05-16T00:35:08.245Z,967.81
2017-05-16T00:36:07.876Z,967.89
2017-05-16T00:37:07.460Z,967.80
2017-05-16T00:38:08.028Z,967.82
2017-05-16T00:40:08.285Z,967.79
2017-05-16T00:40:08.305Z,967.81
2017-05-16T00:41:07.964Z,967.79
2017-05-16T00:42:07.550Z,967.82
2017-05-16T00:43:08.213Z,967.80
2017-05-16T00:44:07.812Z,967.82
2017-05-16T00:45:07.645Z,967.89
2017-05-16T00:46:08.230Z,967.83
2017-05-16T00:47:07.870Z,967.87
2017-05-16T00:48:07.346Z,967.87
2017-05-16T00:49:08.030Z,967.89
2017-05-16T00:50:07.632Z,967.93
2017-05-16T00:51:08.215Z,967.91
2017-05-16T00:52:07.818Z,967.91
2017-05-16T00:53:07.379Z,967.93
2017-05-16T00:54:08.015Z,967.91
2017-05-16T00:55:07.695Z,967.92
2017-05-16T00:56:08.287Z,967.92
2017-05-16T00:57:08.065Z,967.95
2017-05-16T00:58:07.920Z,967.94
2017-05-16T00:59:07.553Z,967.94
2017-05-16T01:00:08.188Z,967.93
2017-05-16T01:01:07.832Z,967.90
2017-05-16T01:02:07.496Z,967.92
2017-05-16T01:03:08.078Z,967.91
2017-05-16T01:04:07.612Z,967.88
2017-05-16T01:05:08.197Z,967.89
2017-05-16T01:06:07.804Z,967.91
2017-05-16T01:07:07.357Z,967.90
2017-05-16T01:08:07.880Z,967.89
2017-05-16T01:09:07.537Z,967.90
2017-05-16T01:10:08.156Z,967.89
2017-05-16T01:11:07.695Z,967.87
2017-05-16T01:12:08.293Z,967.90
2017-05-16T01:13:07.983Z,967.88
2017-05-16T01:14:07.628Z,967.90
2017-05-16T01:15:08.154Z,967.86
2017-05-16T01:16:07.973Z,967.83
2017-05-16T01:17:07.672Z,967.77
2017-05-16T01:18:08.282Z,967.81
2017-05-16T01:19:08.010Z,967.82
2017-05-16T01:20:07.564Z,967.79
2017-05-16T01:21:08.191Z,967.81
2017-05-16T01:22:07.717Z,967.75
2017-05-16T01:23:08.340Z,967.80
2017-05-16T01:24:08.118Z,967.77
2017-05-16T01:25:08.027Z,967.82
2017-05-16T01:26:07.572Z,967.79
2017-05-16T01:27:08.154Z,967.77
2017-05-16T01:28:07.709Z,967.76
2017-05-16T01:29:08.374Z,967.77
2017-05-16T01:30:07.962Z,967.75
2017-05-16T01:31:07.582Z,967.75
2017-05-16T01:32:08.125Z,967.72
2017-05-16T01:33:07.741Z,967.76
2017-05-16T01:34:07.302Z,967.74
2017-05-16T01:35:07.987Z,967.74
2017-05-16T01:36:07.633Z,967.70
2017-05-16T01:37:08.210Z,967.71
2017-05-16T01:38:07.835Z,967.69
2017-05-16T01:39:07.404Z,967.74
2017-05-16T01:40:07.946Z,967.72
2017-05-16T01:41:07.578Z,967.69
2017-05-16T01:42:08.175Z,967.68
2017-05-16T01:43:07.812Z,967.67
2017-05-16T01:44:07.483Z,967.70
2017-05-16T01:45:08.103Z,967.69
2017-05-16T01:46:07.642Z,967.61
2017-05-16T01:47:08.218Z,967.62
2017-05-16T01:48:07.791Z,967.66
2017-05-16T01:49:07.371Z,967.59
2017-05-16T01:50:07.995Z,967.64
2017-05-16T01:51:07.625Z,967.60
2017-05-16T01:52:08.273Z,967.62
2017-05-16T01:53:07.842Z,967.62
2017-05-16T01:54:07.414Z,967.60
2017-05-16T01:55:08.086Z,967.60
2017-05-16T01:56:07.723Z,967.62
2017-05-16T01:57:08.331Z,967.60
2017-05-16T01:58:07.834Z,967.56
2017-05-16T01:59:07.410Z,967.61
2017-05-16T02:00:08.020Z,967.60
2017-05-16T02:01:07.575Z,967.62
2017-05-16T02:02:08.169Z,967.59
2017-05-16T02:03:07.874Z,967.64
2017-05-16T02:04:07.633Z,967.59
2017-05-16T02:05:08.286Z,967.61
2017-05-16T02:06:07.894Z,967.59
2017-05-16T02:07:07.419Z,967.60
2017-05-16T02:08:07.908Z,967.59
2017-05-16T02:09:07.492Z,967.62
2017-05-16T02:10:08.052Z,967.60
2017-05-16T02:11:07.644Z,967.62
2017-05-16T02:12:08.240Z,967.60
2017-05-16T02:13:07.902Z,967.60
2017-05-16T02:14:07.488Z,967.60
2017-05-16T02:15:08.167Z,967.61
2017-05-16T02:16:07.808Z,967.58
2017-05-16T02:17:07.560Z,967.57
2017-05-16T02:18:08.175Z,967.56
2017-05-16T02:19:07.728Z,967.58
2017-05-16T02:20:07.231Z,967.59
2017-05-16T02:21:07.862Z,967.56
2017-05-16T02:22:07.560Z,967.53
2017-05-16T02:23:08.198Z,967.52
2017-05-16T02:24:07.732Z,967.52
2017-05-16T02:25:07.271Z,967.51
2017-05-16T02:26:08.228Z,967.55
2017-05-16T02:27:07.736Z,967.53
2017-05-16T02:28:07.387Z,967.55
2017-05-16T02:29:07.936Z,967.57
2017-05-16T02:30:07.525Z,967.55
2017-05-16T02:31:08.155Z,967.58
2017-05-16T02:32:07.732Z,967.57
2017-05-16T02:33:07.282Z,967.55
2017-05-16T02:34:07.766Z,967.57
2017-05-16T02:35:07.311Z,967.55
2017-05-16T02:36:07.981Z,967.55
2017-05-16T02:37:07.545Z,967.52
2017-05-16T02:38:08.137Z,967.55
2017-05-16T02:39:08.072Z,967.55
2017-05-16T02:40:07.595Z,967.55
2017-05-16T02:41:08.119Z,967.54
2017-05-16T02:42:07.591Z,967.55
2017-05-16T02:43:08.130Z,967.51
2017-05-16T02:44:07.641Z,967.52
2017-05-16T02:45:08.251Z,967.51
2017-05-16T02:46:07.889Z,967.51
2017-05-16T02:47:07.436Z,967.51
2017-05-16T02:48:08.315Z,967.50
2017-05-16T02:49:07.799Z,967.46
2017-05-16T02:50:07.638Z,967.49
2017-05-16T02:51:08.241Z,967.51
2017-05-16T02:52:07.866Z,967.49
2017-05-16T02:53:07.367Z,967.50
2017-05-16T02:54:07.971Z,967.49
2017-05-16T02:55:07.568Z,967.49
2017-05-16T02:56:08.267Z,967.49
2017-05-16T02:57:07.897Z,967.48
2017-05-16T02:58:07.427Z,967.50
2017-05-16T02:59:08.171Z,967.49
2017-05-16T03:00:07.796Z,967.51
2017-05-16T03:01:07.359Z,967.48
2017-05-16T03:02:07.903Z,967.48
2017-05-16T03:03:07.440Z,967.53
2017-05-16T03:04:08.100Z,967.52
2017-05-16T03:05:07.687Z,967.54
2017-05-16T03:06:08.298Z,967.55
2017-05-16T03:07:07.863Z,967.52
2017-05-16T03:08:07.444Z,967.51
2017-05-16T03:09:07.999Z,967.52
2017-05-16T03:10:07.586Z,967.54
2017-05-16T03:11:08.482Z,967.51
2017-05-16T03:12:08.098Z,967.53
2017-05-16T03:13:07.687Z,967.57
2017-05-16T03:14:07.307Z,967.52
2017-05-16T03:15:07.894Z,967.49
2017-05-16T03:16:07.500Z,967.54
2017-05-16T03:17:08.184Z,967.53
2017-05-16T03:18:07.744Z,967.50
2017-05-16T03:19:07.572Z,967.52
2017-05-16T03:20:08.078Z,967.54
2017-05-16T03:21:07.681Z,967.53
2017-05-16T03:22:08.341Z,967.50
2017-05-16T03:23:07.917Z,967.56
2017-05-16T03:24:07.394Z,967.53
2017-05-16T03:25:08.432Z,967.55
2017-05-16T03:26:08.300Z,967.57
2017-05-16T03:27:08.180Z,967.55
2017-05-16T03:28:07.751Z,967.52
2017-05-16T03:29:07.335Z,967.53
2017-05-16T03:30:07.942Z,967.55
2017-05-16T03:31:07.798Z,967.53
2017-05-16T03:32:07.373Z,967.53
2017-05-16T03:33:07.997Z,967.53
2017-05-16T03:34:07.578Z,967.52
2017-05-16T03:35:08.181Z,967.55
2017-05-16T03:36:07.828Z,967.59
2017-05-16T03:37:07.429Z,967.54
2017-05-16T03:38:08.046Z,967.56
2017-05-16T03:39:07.611Z,967.61
2017-05-16T03:40:08.266Z,967.57
2017-05-16T03:41:07.822Z,967.62
2017-05-16T03:42:07.324Z,967.62
2017-05-16T03:43:08.018Z,967.60
2017-05-16T03:44:07.652Z,967.61
2017-05-16T03:45:08.495Z,967.58
2017-05-16T03:46:08.137Z,967.63
2017-05-16T03:47:08.005Z,967.62
2017-05-16T03:48:07.592Z,967.58
2017-05-16T03:49:08.253Z,967.56
2017-05-16T03:50:07.894Z,967.60
2017-05-16T03:51:07.699Z,967.58
2017-05-16T03:52:08.288Z,967.53
2017-05-16T03:53:07.943Z,967.52
2017-05-16T03:54:07.478Z,967.55
2017-05-16T03:55:08.249Z,967.55
2017-05-16T03:56:07.757Z,967.57
2017-05-16T03:57:07.386Z,967.52
2017-05-16T03:58:08.111Z,967.53
2017-05-16T03:59:07.662Z,967.51
2017-05-16T04:00:08.242Z,967.56
2017-05-16T04:01:07.789Z,967.58
2017-05-16T04:02:07.369Z,967.54
2017-05-16T04:03:08.058Z,967.58
2017-05-16T04:04:07.610Z,967.56
2017-05-16T04:05:08.238Z,967.61
2017-05-16T04:06:07.903Z,967.60
2017-05-16T04:07:07.562Z,967.59
2017-05-16T04:08:08.188Z,967.59
2017-05-16T04:09:07.926Z,967.59
2017-05-16T04:10:07.406Z,967.63
2017-05-16T04:11:07.970Z,967.64
2017-05-16T04:12:07.538Z,967.64
2017-05-16T04:13:08.237Z,967.62
2017-05-16T04:14:07.818Z,967.61
2017-05-16T04:15:07.457Z,967.63
2017-05-16T04:16:08.078Z,967.59
2017-05-16T04:17:07.741Z,967.66
2017-05-16T04:18:08.317Z,967.59
2017-05-16T04:19:07.891Z,967.61
2017-05-16T04:20:07.733Z,967.61
2017-05-16T04:21:08.380Z,967.60
2017-05-16T04:22:07.931Z,967.63
2017-05-16T04:23:07.428Z,967.60
2017-05-16T04:24:07.681Z,967.64
2017-05-16T04:25:10.694Z,967.65
2017-05-16T04:26:07.925Z,967.58
2017-05-16T04:27:07.744Z,967.57
2017-05-16T04:28:07.399Z,967.62
2017-05-16T04:29:08.058Z,967.58
2017-05-16T04:30:07.550Z,967.57
2017-05-16T04:31:08.258Z,967.55
2017-05-16T04:32:07.852Z,967.57
2017-05-16T04:33:07.425Z,967.57
2017-05-16T04:34:08.350Z,967.59
2017-05-16T04:35:07.970Z,967.59
2017-05-16T04:36:07.548Z,967.58
2017-05-16T04:37:08.115Z,967.59
2017-05-16T04:38:07.729Z,967.60
2017-05-16T04:39:08.341Z,967.62
2017-05-16T04:40:07.934Z,967.60
2017-05-16T04:41:07.536Z,967.59
2017-05-16T04:42:08.190Z,967.62
2017-05-16T04:43:07.811Z,967.64
2017-05-16T04:44:07.307Z,967.61
2017-05-16T04:45:07.904Z,967.64
2017-05-16T04:46:07.797Z,967.60
2017-05-16T04:47:07.292Z,967.61
2017-05-16T04:48:07.899Z,967.64
2017-05-16T04:49:07.443Z,967.64
2017-05-16T04:50:08.076Z,967.64
2017-05-16T04:51:07.561Z,967.67
2017-05-16T04:52:08.106Z,967.68
2017-05-16T04:53:07.645Z,967.72
2017-05-16T04:54:08.243Z,967.71
2017-05-16T04:55:07.861Z,967.67
2017-05-16T04:56:07.502Z,967.69
2017-05-16T04:57:08.057Z,967.69
2017-05-16T04:58:07.624Z,967.72
2017-05-16T04:59:08.608Z,967.70
2017-05-16T05:00:08.275Z,967.71
2017-05-16T05:01:07.883Z,967.68
2017-05-16T05:02:07.394Z,967.70
2017-05-16T05:03:07.920Z,967.70
2017-05-16T05:04:07.522Z,967.73
2017-05-16T05:05:08.067Z,967.71
2017-05-16T05:06:07.678Z,967.73
2017-05-16T05:07:08.389Z,967.73
2017-05-16T05:08:07.984Z,967.72
2017-05-16T05:09:07.567Z,967.73
2017-05-16T05:10:08.205Z,967.75
2017-05-16T05:11:07.855Z,967.78
2017-05-16T05:12:07.433Z,967.78
2017-05-16T05:13:07.889Z,967.79
2017-05-16T05:14:07.474Z,967.77
2017-05-16T05:15:08.063Z,967.81
2017-05-16T05:16:07.533Z,967.85
2017-05-16T05:17:08.218Z,967.86
2017-05-16T05:18:07.835Z,967.86
2017-05-16T05:19:07.391Z,967.92
2017-05-16T05:20:08.000Z,967.92
2017-05-16T05:21:07.507Z,967.90
2017-05-16T05:22:08.375Z,967.91
2017-05-16T05:23:07.900Z,967.92
2017-05-16T05:24:07.483Z,967.91
2017-05-16T05:25:08.129Z,967.92
2017-05-16T05:26:07.597Z,967.91
2017-05-16T05:27:08.212Z,967.89
2017-05-16T05:28:07.792Z,967.90
2017-05-16T05:29:07.346Z,967.89
2017-05-16T05:30:07.919Z,967.91
2017-05-16T05:31:07.494Z,967.92
2017-05-16T05:32:08.090Z,967.94
2017-05-16T05:33:07.614Z,967.94
2017-05-16T05:34:08.295Z,967.95
2017-05-16T05:35:07.920Z,967.95
2017-05-16T05:36:07.521Z,967.98
2017-05-16T05:37:08.020Z,967.98
2017-05-16T05:38:07.575Z,967.98
2017-05-16T05:39:08.179Z,967.96
2017-05-16T05:40:07.737Z,967.97
2017-05-16T05:41:08.402Z,967.96
2017-05-16T05:42:08.016Z,968.00
2017-05-16T05:43:07.502Z,967.99
2017-05-16T05:44:08.024Z,967.98
2017-05-16T05:45:07.510Z,967.98
2017-05-16T05:46:08.143Z,967.95
2017-05-16T05:47:07.934Z,967.99
2017-05-16T05:48:07.479Z,968.01
2017-05-16T05:49:08.048Z,968.00
2017-05-16T05:50:07.602Z,967.99
2017-05-16T05:51:08.209Z,967.99
2017-05-16T05:52:07.708Z,968.00
2017-05-16T05:53:08.371Z,968.00
2017-05-16T05:54:08.051Z,968.05
2017-05-16T05:55:07.712Z,968.00
2017-05-16T05:56:08.266Z,967.98
2017-05-16T05:57:07.745Z,967.97
2017-05-16T05:58:07.315Z,968.01
2017-05-16T05:59:07.891Z,968.03
2017-05-16T06:00:07.456Z,968.05
2017-05-16T06:01:08.026Z,968.04
2017-05-16T06:02:07.608Z,968.05
2017-05-16T06:03:08.181Z,968.02
2017-05-16T06:04:07.732Z,968.03
2017-05-16T06:05:08.251Z,968.03
2017-05-16T06:06:07.886Z,968.03
2017-05-16T06:07:07.664Z,967.98
2017-05-16T06:08:08.270Z,968.02
2017-05-16T06:09:08.044Z,968.00
2017-05-16T06:10:07.604Z,968.07
2017-05-16T06:11:08.243Z,968.00
2017-05-16T06:12:07.812Z,967.99
2017-05-16T06:13:07.360Z,968.00
2017-05-16T06:14:07.945Z,967.99
2017-05-16T06:15:07.622Z,968.01
2017-05-16T06:16:08.189Z,967.99
2017-05-16T06:17:07.828Z,967.98
2017-05-16T06:18:07.467Z,967.97
2017-05-16T06:19:07.976Z,968.01
2017-05-16T06:20:07.615Z,968.02
2017-05-16T06:21:08.108Z,968.05
2017-05-16T06:22:07.687Z,968.02
2017-05-16T06:23:08.116Z,968.05
2017-05-16T06:24:08.468Z,968.06
2017-05-16T06:25:08.292Z,968.06
2017-05-16T06:26:07.878Z,968.08
2017-05-16T06:27:07.380Z,968.06
2017-05-16T06:28:07.957Z,968.04
2017-05-16T06:29:07.575Z,968.02
2017-05-16T06:30:08.270Z,968.03
2017-05-16T06:31:07.819Z,967.98
2017-05-16T06:32:07.519Z,967.98
2017-05-16T06:33:08.178Z,968.00
2017-05-16T06:34:07.812Z,968.04
2017-05-16T06:35:07.413Z,968.04
2017-05-16T06:36:07.952Z,968.00
2017-05-16T06:37:07.584Z,968.06
2017-05-16T06:38:08.195Z,968.06
2017-05-16T06:39:07.777Z,968.02
2017-05-16T06:40:07.463Z,968.06
2017-05-16T06:41:08.062Z,968.08
2017-05-16T06:42:07.567Z,968.08
2017-05-16T06:43:08.172Z,968.09
2017-05-16T06:44:07.748Z,968.07
2017-05-16T06:45:08.525Z,968.07
2017-05-16T06:46:08.162Z,968.09
2017-05-16T06:47:07.741Z,968.10
2017-05-16T06:48:08.296Z,968.08
2017-05-16T06:49:07.976Z,968.07
2017-05-16T06:50:07.556Z,968.11
2017-05-16T06:51:08.213Z,968.12
2017-05-16T06:52:08.012Z,968.12
2017-05-16T06:53:07.616Z,968.12
2017-05-16T06:54:08.186Z,968.12
2017-05-16T06:55:07.886Z,968.16
2017-05-16T06:56:07.397Z,968.19
2017-05-16T06:57:07.974Z,968.17
2017-05-16T06:58:07.577Z,968.18
2017-05-16T06:59:08.151Z,968.17
2017-05-16T07:00:07.911Z,968.15
2017-05-16T07:01:07.631Z,968.14
2017-05-16T07:02:08.228Z,968.14
2017-05-16T07:03:07.813Z,968.17
2017-05-16T07:04:07.385Z,968.15
2017-05-16T07:05:07.961Z,968.13
2017-05-16T07:06:07.451Z,968.12
2017-05-16T07:07:08.040Z,968.14
2017-05-16T07:08:07.597Z,968.08
2017-05-16T07:09:08.266Z,968.09
2017-05-16T07:10:07.723Z,968.10
2017-05-16T07:11:08.352Z,968.14
2017-05-16T07:12:07.947Z,968.17
2017-05-16T07:13:07.551Z,968.12
2017-05-16T07:14:08.161Z,968.17
2017-05-16T07:15:07.795Z,968.15
2017-05-16T07:16:07.319Z,968.17
2017-05-16T07:17:07.973Z,968.19
2017-05-16T07:18:07.566Z,968.15
2017-05-16T07:19:08.172Z,968.17
2017-05-16T07:20:07.746Z,968.13
2017-05-16T07:21:08.312Z,968.18
2017-05-16T07:22:07.798Z,968.14
2017-05-16T07:23:08.135Z,968.16
2017-05-16T07:24:07.643Z,968.11
2017-05-16T07:25:08.306Z,968.14
2017-05-16T07:26:07.867Z,968.10
2017-05-16T07:27:07.474Z,968.09
2017-05-16T07:28:08.059Z,968.11
2017-05-16T07:29:07.703Z,968.08
2017-05-16T07:30:08.333Z,968.06
2017-05-16T07:31:07.899Z,968.07
2017-05-16T07:32:07.494Z,968.10
2017-05-16T07:33:08.153Z,968.07
2017-05-16T07:34:07.735Z,968.13
2017-05-16T07:35:08.352Z,968.08
2017-05-16T07:36:08.213Z,968.11
2017-05-16T07:37:07.828Z,968.11
2017-05-16T07:38:07.388Z,968.10
2017-05-16T07:39:07.948Z,968.07
2017-05-16T07:40:07.482Z,968.08
2017-05-16T07:41:08.119Z,968.06
2017-05-16T07:42:07.748Z,968.07
2017-05-16T07:43:08.340Z,968.06
2017-05-16T07:44:07.971Z,968.04
2017-05-16T07:45:07.624Z,968.05
2017-05-16T07:46:08.250Z,968.03
2017-05-16T07:47:07.794Z,968.06
2017-05-16T07:48:07.297Z,967.99
2017-05-16T07:49:07.988Z,968.02
2017-05-16T07:50:07.573Z,968.01
2017-05-16T07:51:08.138Z,968.01
2017-05-16T07:52:07.664Z,967.99
2017-05-16T07:53:08.234Z,968.00
2017-05-16T07:54:07.882Z,968.03
2017-05-16T07:55:07.564Z,968.01
2017-05-16T07:56:08.134Z,967.98
2017-05-16T07:57:07.779Z,967.99
2017-05-16T07:58:07.597Z,967.94
2017-05-16T07:59:08.138Z,967.98
2017-05-16T08:00:07.672Z,967.94
2017-05-16T08:01:08.278Z,967.98
2017-05-16T08:02:07.989Z,967.96
2017-05-16T08:03:07.545Z,967.94
2017-05-16T08:04:08.107Z,967.98
2017-05-16T08:05:07.676Z,967.98
2017-05-16T08:06:08.330Z,968.00
2017-05-16T08:07:07.981Z,967.96
2017-05-16T08:08:07.509Z,967.99
2017-05-16T08:09:08.168Z,968.00
2017-05-16T08:10:07.749Z,968.00
2017-05-16T08:11:08.317Z,967.98
2017-05-16T08:12:07.918Z,967.98
2017-05-16T08:13:07.591Z,967.98
2017-05-16T08:14:08.244Z,968.01
2017-05-16T08:15:07.977Z,967.99
2017-05-16T08:16:07.728Z,967.98
2017-05-16T08:17:08.468Z,968.00
2017-05-16T08:18:08.555Z,968.00
2017-05-16T08:19:08.175Z,967.95
2017-05-16T08:20:07.957Z,967.93
2017-05-16T08:21:07.505Z,967.93
2017-05-16T08:22:07.657Z,967.96
2017-05-16T08:23:08.263Z,967.96
2017-05-16T08:24:07.971Z,967.92
2017-05-16T08:25:07.598Z,967.94
2017-05-16T08:26:08.225Z,967.96
2017-05-16T08:27:07.844Z,967.95
2017-05-16T08:28:07.407Z,967.94
2017-05-16T08:29:08.048Z,967.96
2017-05-16T08:30:07.588Z,967.93
2017-05-16T08:31:08.234Z,967.97
2017-05-16T08:32:07.827Z,967.94
2017-05-16T08:33:07.710Z,967.92
2017-05-16T08:34:08.407Z,967.93
2017-05-16T08:35:07.950Z,967.91
2017-05-16T08:36:07.526Z,967.90
2017-05-16T08:37:08.173Z,967.88
2017-05-16T08:38:07.866Z,967.90
2017-05-16T08:39:07.572Z,967.90
2017-05-16T08:40:08.163Z,967.90
2017-05-16T08:41:07.795Z,967.88
2017-05-16T08:42:07.545Z,967.84
2017-05-16T08:43:08.161Z,967.86
2017-05-16T08:44:07.738Z,967.84
2017-05-16T08:45:08.483Z,967.90
2017-05-16T08:46:08.041Z,967.90
2017-05-16T08:47:07.653Z,967.89
2017-05-16T08:48:08.241Z,967.90
2017-05-16T08:49:07.924Z,967.90
2017-05-16T08:50:07.839Z,967.90
2017-05-16T08:51:07.349Z,967.84
2017-05-16T08:52:07.908Z,967.85
2017-05-16T08:53:07.761Z,967.84
2017-05-16T08:54:08.453Z,967.92
2017-05-16T08:55:08.918Z,967.93
2017-05-16T08:56:07.506Z,967.87
2017-05-16T08:57:08.133Z,967.88
2017-05-16T08:58:07.744Z,967.87
2017-05-16T08:59:39.097Z,967.85
2017-05-16T09:00:07.731Z,967.84
2017-05-16T09:01:08.317Z,967.84
2017-05-16T09:02:07.994Z,967.82
2017-05-16T09:03:07.633Z,967.84
2017-05-16T09:04:08.318Z,967.89
2017-05-16T09:05:07.896Z,967.79
2017-05-16T09:06:07.767Z,967.84
2017-05-16T09:07:07.343Z,967.82
2017-05-16T09:08:07.963Z,967.81
2017-05-16T09:09:07.880Z,967.80
2017-05-16T09:10:07.515Z,967.77
2017-05-16T09:11:08.034Z,967.78
2017-05-16T09:12:07.636Z,967.80
2017-05-16T09:13:08.229Z,967.80
2017-05-16T09:14:07.907Z,967.80
2017-05-16T09:15:07.831Z,967.80
2017-05-16T09:16:07.532Z,967.80
2017-05-16T09:17:08.297Z,967.82
2017-05-16T09:18:07.875Z,967.83
2017-05-16T09:19:07.472Z,967.77
2017-05-16T09:20:07.917Z,967.80
2017-05-16T09:21:07.491Z,967.77
2017-05-16T09:22:08.260Z,967.76
2017-05-16T09:23:07.866Z,967.75
2017-05-16T09:24:07.474Z,967.71
2017-05-16T09:25:08.240Z,967.74
2017-05-16T09:26:07.800Z,967.72
2017-05-16T09:27:07.362Z,967.73
2017-05-16T09:28:07.897Z,967.68
2017-05-16T09:29:07.725Z,967.71
2017-05-16T09:30:07.447Z,967.70
2017-05-16T09:31:08.030Z,967.68
2017-05-16T09:32:07.630Z,967.67
2017-05-16T09:33:08.258Z,967.68
2017-05-16T09:34:07.816Z,967.67
2017-05-16T09:35:07.271Z,967.66
2017-05-16T09:36:07.857Z,967.67
2017-05-16T09:37:07.553Z,967.68
2017-05-16T09:38:08.414Z,967.66
2017-05-16T09:39:07.970Z,967.66
2017-05-16T09:40:07.538Z,967.65
2017-05-16T09:41:08.306Z,967.61
2017-05-16T09:42:08.426Z,967.66
2017-05-16T09:43:08.052Z,967.61
2017-05-16T09:44:07.630Z,967.62
2017-05-16T09:45:07.351Z,967.59
2017-05-16T09:46:07.887Z,967.62
2017-05-16T09:47:07.455Z,967.58
2017-05-16T09:48:08.193Z,967.55
2017-05-16T09:49:07.774Z,967.58
2017-05-16T09:50:07.716Z,967.55
2017-05-16T09:51:08.297Z,967.60
2017-05-16T09:52:46.507Z,967.60
2017-05-16T09:53:08.149Z,967.60
2017-05-16T09:54:07.765Z,967.62
2017-05-16T09:55:07.425Z,967.57
2017-05-16T09:56:08.063Z,967.64
2017-05-16T09:57:07.670Z,967.63
2017-05-16T09:58:08.295Z,967.58
2017-05-16T09:59:07.850Z,967.61
2017-05-16T10:00:07.465Z,967.60
2017-05-16T10:01:08.034Z,967.61
2017-05-16T10:02:07.647Z,967.61
2017-05-16T10:03:08.271Z,967.60
2017-05-16T10:04:07.896Z,967.56
2017-05-16T10:05:07.384Z,967.57
2017-05-16T10:06:07.857Z,967.54
2017-05-16T10:07:07.476Z,967.51
2017-05-16T10:08:08.202Z,967.53
2017-05-16T10:09:07.768Z,967.56
2017-05-16T10:10:08.411Z,967.50
2017-05-16T10:11:08.194Z,967.50
2017-05-16T10:12:07.663Z,967.55
2017-05-16T10:13:08.381Z,967.52
2017-05-16T10:14:07.951Z,967.51
2017-05-16T10:15:07.535Z,967.46
2017-05-16T10:16:08.146Z,967.51
2017-05-16T10:17:18.562Z,967.47
2017-05-16T10:18:08.308Z,967.45
2017-05-16T10:19:07.790Z,967.44
2017-05-16T10:20:07.859Z,967.42
2017-05-16T10:21:07.361Z,967.38
2017-05-16T10:22:07.986Z,967.43
2017-05-16T10:23:07.547Z,967.44
2017-05-16T10:24:08.097Z,967.42
2017-05-16T10:25:07.822Z,967.38
2017-05-16T10:26:07.442Z,967.36
2017-05-16T10:27:08.004Z,967.34
2017-05-16T10:28:07.763Z,967.34
2017-05-16T10:29:08.305Z,967.32
2017-05-16T10:30:07.925Z,967.28
2017-05-16T10:31:31.089Z,967.34
2017-05-16T10:32:07.672Z,967.34
2017-05-16T10:33:08.310Z,967.31
2017-05-16T10:34:07.931Z,967.29
2017-05-16T10:35:07.564Z,967.36
2017-05-16T10:37:07.474Z,967.25
2017-05-16T10:38:07.963Z,967.27
2017-05-16T10:39:07.474Z,967.26
2017-05-16T10:40:08.051Z,967.23
2017-05-16T10:41:07.646Z,967.24
2017-05-16T10:42:08.279Z,967.25
2017-05-16T10:43:07.847Z,967.28
2017-05-16T10:44:07.406Z,967.28
2017-05-16T10:45:07.976Z,967.23
2017-05-16T10:46:07.475Z,967.26
2017-05-16T10:47:08.161Z,967.28
2017-05-16T10:48:07.755Z,967.28
2017-05-16T10:49:08.400Z,967.26
2017-05-16T10:50:26.098Z,967.23
2017-05-16T10:51:07.706Z,967.24
2017-05-16T10:52:08.322Z,967.25
2017-05-16T10:53:07.922Z,967.22
2017-05-16T10:54:07.505Z,967.20
2017-05-16T10:55:08.155Z,967.20
2017-05-16T10:56:07.845Z,967.15
2017-05-16T10:57:07.280Z,967.15
2017-05-16T10:58:07.855Z,967.21
2017-05-16T10:59:07.350Z,967.16
2017-05-16T11:00:08.043Z,967.18
2017-05-16T11:01:07.680Z,967.16
2017-05-16T11:02:08.290Z,967.15
2017-05-16T11:03:07.962Z,967.11
2017-05-16T11:04:07.453Z,967.17
2017-05-16T11:05:08.140Z,967.14
2017-05-16T11:06:07.712Z,967.09
2017-05-16T11:07:08.377Z,967.09
2017-05-16T11:08:07.890Z,967.05
2017-05-16T11:09:07.642Z,967.11
2017-05-16T11:10:08.309Z,967.03
2017-05-16T11:11:08.002Z,967.03
2017-05-16T11:12:07.588Z,967.05
2017-05-16T11:13:17.713Z,967.05
2017-05-16T11:14:08.306Z,967.04
2017-05-16T11:15:07.939Z,967.03
2017-05-16T11:16:07.537Z,967.05
2017-05-16T11:17:08.449Z,967.04
2017-05-16T11:18:08.100Z,967.06
2017-05-16T11:19:07.911Z,967.03
2017-05-16T11:20:07.469Z,967.02
2017-05-16T11:21:08.011Z,967.04
2017-05-16T11:22:07.510Z,967.03
2017-05-16T11:23:08.127Z,966.99
2017-05-16T11:24:08.031Z,966.95
2017-05-16T11:25:07.949Z,966.94
2017-05-16T11:26:07.518Z,966.95
2017-05-16T11:27:08.083Z,966.92
2017-05-16T11:28:08.559Z,966.90
2017-05-16T11:29:08.126Z,966.92
2017-05-16T11:30:07.768Z,966.91
2017-05-16T11:31:07.654Z,966.91
2017-05-16T11:32:08.335Z,966.88
2017-05-16T11:33:07.919Z,966.90
2017-05-16T11:34:07.559Z,966.87
2017-05-16T11:35:08.212Z,966.84
2017-05-16T11:36:07.728Z,966.85
2017-05-16T11:37:08.407Z,966.85
2017-05-16T11:38:08.066Z,966.82
2017-05-16T11:39:07.632Z,966.86
2017-05-16T11:40:08.213Z,966.83
2017-05-16T11:41:07.809Z,966.81
2017-05-16T11:42:07.391Z,966.82
2017-05-16T11:43:07.991Z,966.87
2017-05-16T11:44:07.570Z,966.85
2017-05-16T11:45:08.161Z,966.80
2017-05-16T11:46:07.867Z,966.83
2017-05-16T11:47:07.466Z,966.81
2017-05-16T11:48:08.155Z,966.84
2017-05-16T11:49:07.752Z,966.79
2017-05-16T11:50:08.336Z,966.79
2017-05-16T11:51:08.295Z,966.79
2017-05-16T11:52:08.171Z,966.83
2017-05-16T11:53:07.778Z,966.76
2017-05-16T11:54:07.315Z,966.78
2017-05-16T11:55:07.958Z,966.68
2017-05-16T11:56:07.558Z,966.71
2017-05-16T11:57:08.239Z,966.76
2017-05-16T11:58:08.071Z,966.69
2017-05-16T11:59:07.701Z,966.68
2017-05-16T12:00:08.267Z,966.64
2017-05-16T12:01:07.865Z,966.61
2017-05-16T12:02:07.408Z,966.69
2017-05-16T12:03:08.006Z,966.62
2017-05-16T12:04:07.736Z,966.59
2017-05-16T12:05:08.365Z,966.61
2017-05-16T12:06:07.946Z,966.58
2017-05-16T12:07:07.558Z,966.59
2017-05-16T12:08:08.208Z,966.57
2017-05-16T12:09:07.672Z,966.54
2017-05-16T12:10:08.282Z,966.53
2017-05-16T12:11:08.730Z,966.51
2017-05-16T12:12:08.359Z,966.56
2017-05-16T12:13:07.926Z,966.47
2017-05-16T12:14:07.472Z,966.47
2017-05-16T12:15:08.177Z,966.49
2017-05-16T12:16:07.800Z,966.53
2017-05-16T12:17:07.767Z,966.46
2017-05-16T12:18:07.505Z,966.54
2017-05-16T12:19:08.056Z,966.54
2017-05-16T12:20:07.581Z,966.54
2017-05-16T12:21:08.238Z,966.52
2017-05-16T12:22:07.892Z,966.49
2017-05-16T12:23:07.496Z,966.50
2017-05-16T12:24:08.133Z,966.46
2017-05-16T12:25:07.756Z,966.48
2017-05-16T12:26:07.354Z,966.48
2017-05-16T12:27:07.905Z,966.43
2017-05-16T12:28:07.607Z,966.45
2017-05-16T12:29:08.327Z,966.43